Agana Heights, GU

9:16 AM ChST on November 26, 2014 (GMT +1000)
Maite | Change Station
CLOSE
Current Station
Personal Weather Station
Location: Maite, GU
Elevation: 140 ft
Nearby Weather Stations

Elev 140 ft 13.48 °N, 144.76 °E | Updated 1 second ago

Clear
Clear
85.5 °F
Feels Like 96 °F
N
8.0
Wind Variable Wind from ESE
Gusts 15.0 mph

Today
High -- | Low -- °F
--% Chance of Precip.
Yesterday
High -- | Low -- °F
Precip. -- in
6:25 AM 5:50 PM
Waxing Crescent, 14% visible
Pressure 29.87 in
Visibility 10.0 miles
Clouds Clear
Heat Index 96 °F
Dew Point 77 °F
Humidity 75%
Rainfall 0.00 in
Snow Depth Not available.
UV 4.6 out of 12
Pollen Not available.
Air Quality Not available.
Flu Activity Not available.
METAR PGUM 252254Z 07011KT 10SM CLR 30/23 A2989 RMK AO2 SLP115 T03000233

More Conditions Fewer Conditions

Pressure 29.87 in
Visibility 10.0 miles
Clouds Clear
Heat Index 96 °F
Dew Point 77 °F
Humidity 75%
Rainfall 0.00 in
Snow Depth Not available.
UV 4.6 out of 12
Pollen Not available.
Air Quality Not available.
Flu Activity Not available.
METAR PGUM 252254Z 07011KT 10SM CLR 30/23 A2989 RMK AO2 SLP115 T03000233

More Conditions Fewer Conditions

10-Day Weather Forecast

Almanac

Astronomy

Nov. 26, 2014 Rise Set
Actual Time
Civil Twilight
Nautical Twilight
Astronomical Twilight
Moon
Length of Visible Light
Length of Day
Tomorrow will be .
, % of the Moon is Illuminated

Today's Extremes

State Highs State Lows

Community

WunderPhotos

Upload Photos

1,773,620 photos uploaded!

WunderBlogs® & News

Nearby

Air Quality

  Air Quality AQ Index Pollutant
Not available.

Snow Depth

Station Depth Elevation

Earthquake Activity

City Distance Mag. Time & Date
Minimum magnitude displayed is 2.5.

Coastal Water Temperatures

Place Temperature

Nearby Weather Stations